Aérodrome :
LOGIN :

S'inscrire | Disclaimer

   EN    FR    IT 

 










Légende :    VFR   VFR Marginal   IFR   IFR Intensif   IFR Très Intensif
Visi : 
Plafond : 
>= 8 km
>= 3000ft
5 à 8 km
1000 à 3000 ft
1500m à 5 km
500 à 1000 ft
800 à 1500m
200 à 500 ft
< 800m
< 200 ft
Symboles :   Orages  Brouillard  Fortes neiges  Fortes précipitations  Vent > 20 kt
SIGMETs :   Divers  Orages  Givrage  Turbulence  Onde Orograph.  Cendres Volcan.






- Altitude de l'aérodrome : 26 ft
- Code IATA : BIA


LFKB - Bastia

DERNIER METAR :
  • 271500Z AUTO 14008KT 9999 FEW054 BKN072 OVC088 13/03 Q1011 TEMPO FEW030TCU BKN060

METARs EXPIRÉS :
  • 271430Z AUTO 13010KT 9999 FEW054 SCT068 BKN082 13/02 Q1012 TEMPO FEW040TCU BKN060
  • 271400Z AUTO 13010KT 9999 FEW012 BKN072 BKN094 13/02 Q1012 TEMPO FEW040TCU BKN060
  • 271330Z AUTO 13008KT 9999 BKN076 OVC100 13/01 Q1012 TEMPO FEW040TCU BKN060
  • 271300Z AUTO 11005KT 9999 FEW068 BKN084 OVC100 14/02 Q1013 TEMPO FEW040TCU BKN060
  • 271230Z AUTO 11005KT 070V130 9999 BKN100 13/00 Q1013 TEMPO FEW040TCU BKN060

TAF TAF LFKB
Valide du 27 à 15h jusqu'au 28 à 15h UTC


271400Z 2715/2815 14010KT 9999 BKN060 TX15/2812Z TN07/2804Z
TEMPO 2715/2718 FEW030TCU BKN060
BECMG 2721/2723 28025G45KT
BECMG 2803/2805 35015KT
BECMG 2806/2808 30005KT
ATIS : +33 4 95 59 19 40



MET'MAP, la Météo Aéronautique d'un coup d'oeil ! - Copyright ORBIFLY Décembre 2007 - Disclaimer

ORBIFLY MET'MAP TEAM :

Programmation & Développement : Alexandra Zaïnal
Sur une idée originale de : Baudouin d'Aumeries
Assistance à la programmation : Marc-Olivier Méhu
Soutien technique & logistique : Manuel Goepfert

Contact : metmap@orbifly.com




SOURCES & CREDITS :

   NOAA